Time;durP1;ratioP1;P1;durP2;ratioP2;P2;SDS_P1;SDS_P2;PMS_P1;PMS_P2;Temp;Humidity;BMP_temperature;BMP_pressure;BME280_temperature;BME280_humidity;BME280_pressure;Samples;Min_cycle;Max_cycle;Signal;HPM_P1;HPM_P2
2022/03/26 00:02:00;;;;;;;24.10;17.43;;;;;;;3.20;67.21;100475.00;4910968;29;20260;-78
2022/03/26 00:04:28;;;;;;;22.60;17.07;;;;;;;3.17;67.30;100470.00;4910643;29;20237;-78
2022/03/26 00:06:55;;;;;;;27.07;17.33;;;;;;;3.14;67.21;100470.31;4906458;29;20243;-78
2022/03/26 00:09:21;;;;;;;22.97;17.47;;;;;;;3.15;66.98;100468.47;4908392;29;20748;-78
2022/03/26 00:11:48;;;;;;;22.37;16.67;;;;;;;3.11;67.59;100473.25;4912414;29;20238;-78
2022/03/26 00:14:15;;;;;;;25.67;17.57;;;;;;;3.09;67.64;100470.75;4910852;29;20246;-78
2022/03/26 00:16:42;;;;;;;21.90;16.43;;;;;;;3.03;68.48;100470.53;4905155;29;20309;-78
2022/03/26 00:19:09;;;;;;;24.13;18.00;;;;;;;3.01;69.15;100475.16;4910539;29;20244;-78
2022/03/26 00:21:36;;;;;;;22.73;17.13;;;;;;;2.93;69.77;100478.56;4908795;29;20241;-79
2022/03/26 00:24:03;;;;;;;23.60;17.77;;;;;;;2.88;70.53;100480.81;4905792;29;20290;-78
2022/03/26 00:26:29;;;;;;;22.77;17.50;;;;;;;2.83;70.86;100482.25;4908673;29;20242;-78
2022/03/26 00:28:56;;;;;;;21.67;17.63;;;;;;;2.74;71.79;100483.13;4907311;29;20375;-78
2022/03/26 00:31:23;;;;;;;23.33;17.27;;;;;;;2.70;72.37;100476.47;4910420;29;20257;-79
2022/03/26 00:33:51;;;;;;;22.03;16.77;;;;;;;2.65;71.69;100476.91;4906944;29;20241;-79
2022/03/26 00:36:18;;;;;;;26.73;18.43;;;;;;;2.60;72.52;100480.00;4906546;29;20237;-78
2022/03/26 00:38:45;;;;;;;22.73;16.77;;;;;;;2.55;72.65;100473.50;4903097;29;20230;-78
2022/03/26 00:41:12;;;;;;;22.37;17.57;;;;;;;2.51;72.68;100472.97;4910451;29;20769;-78
2022/03/26 00:43:39;;;;;;;25.33;18.27;;;;;;;2.48;72.77;100477.69;4900390;29;20325;-78
2022/03/26 00:46:05;;;;;;;24.97;17.50;;;;;;;2.47;72.74;100470.75;4909341;29;20231;-79
2022/03/26 00:48:33;;;;;;;24.67;18.17;;;;;;;2.44;73.49;100476.31;4912199;29;20234;-78
2022/03/26 00:51:00;;;;;;;24.47;17.27;;;;;;;2.42;74.34;100478.31;4906694;29;20709;-79
2022/03/26 00:53:26;;;;;;;23.27;17.63;;;;;;;2.29;75.60;100475.97;4914048;29;20245;-78
2022/03/26 00:55:53;;;;;;;25.27;18.13;;;;;;;2.27;75.68;100477.94;4912089;29;20769;-79
2022/03/26 00:58:20;;;;;;;22.33;17.40;;;;;;;2.29;75.76;100483.91;4902431;29;20234;-79
2022/03/26 01:00:47;;;;;;;24.97;18.57;;;;;;;2.25;75.88;100479.88;4907825;29;20604;-78
2022/03/26 01:03:16;;;;;;;21.50;17.97;;;;;;;2.24;75.53;100480.88;4906129;29;20601;-78
2022/03/26 01:05:43;;;;;;;24.30;18.40;;;;;;;2.22;75.77;100485.47;4911795;29;20237;-79
2022/03/26 01:08:10;;;;;;;23.43;17.97;;;;;;;2.19;74.78;100483.94;4911468;29;20262;-79
2022/03/26 01:10:37;;;;;;;25.13;17.17;;;;;;;2.24;74.83;100485.34;4907931;29;20246;-79
2022/03/26 01:13:04;;;;;;;21.40;17.13;;;;;;;2.11;75.26;100483.84;4904347;29;20325;-79
2022/03/26 01:15:31;;;;;;;25.53;18.00;;;;;;;2.10;75.67;100484.81;4911536;29;20234;-79
2022/03/26 01:17:57;;;;;;;26.63;17.80;;;;;;;2.05;75.96;100478.31;4906347;29;20230;-79
2022/03/26 01:20:24;;;;;;;24.30;18.50;;;;;;;1.97;77.71;100483.47;4910626;29;20244;-80
2022/03/26 01:22:51;;;;;;;23.30;18.33;;;;;;;2.02;77.08;100482.06;4911739;29;20236;-79
2022/03/26 01:25:18;;;;;;;25.07;18.70;;;;;;;1.94;78.21;100476.66;4906447;29;20263;-80
2022/03/26 01:27:44;;;;;;;26.63;18.80;;;;;;;1.90;78.77;100477.94;4908057;29;20606;-79
2022/03/26 01:30:12;;;;;;;24.93;17.63;;;;;;;1.82;79.44;100477.81;4902560;29;20310;-79
2022/03/26 01:32:39;;;;;;;23.43;17.97;;;;;;;1.80;78.84;100476.28;4912092;29;20318;-79
2022/03/26 01:35:06;;;;;;;26.20;18.50;;;;;;;1.80;79.37;100473.66;4908177;29;20656;-78
2022/03/26 01:37:33;;;;;;;24.57;17.60;;;;;;;1.92;77.44;100473.31;4902263;29;20229;-79
2022/03/26 01:40:00;;;;;;;24.73;17.53;;;;;;;1.87;78.47;100478.22;4907620;29;20244;-79
2022/03/26 01:42:26;;;;;;;22.80;17.10;;;;;;;1.77;78.53;100470.31;4907071;29;20235;-79
2022/03/26 01:44:53;;;;;;;22.03;17.23;;;;;;;1.75;78.61;100472.28;4910481;29;20423;-79
2022/03/26 01:47:21;;;;;;;26.07;16.87;;;;;;;1.72;79.70;100471.72;4912147;29;20298;-80
2022/03/26 01:49:48;;;;;;;25.33;16.97;;;;;;;1.73;79.67;100479.50;4908396;29;20245;-80
2022/03/26 01:52:15;;;;;;;25.93;17.83;;;;;;;1.63;80.70;100459.38;4906970;29;20710;-80
2022/03/26 01:54:43;;;;;;;20.77;16.93;;;;;;;1.58;81.32;100466.91;4912164;29;20324;-80
2022/03/26 01:57:11;;;;;;;24.73;17.50;;;;;;;1.61;80.59;100469.25;4905200;29;20673;-80
2022/03/26 01:59:41;;;;;;;22.00;16.60;;;;;;;1.54;82.05;100457.59;4912047;29;20234;-81
2022/03/26 02:02:09;;;;;;;23.83;18.20;;;;;;;1.49;83.12;100458.00;4907360;29;20679;-79
2022/03/26 02:04:36;;;;;;;23.80;17.17;;;;;;;1.53;82.94;100462.03;4906687;29;20309;-80
2022/03/26 02:07:04;;;;;;;23.73;17.97;;;;;;;1.56;82.58;100458.25;4909712;29;20300;-80
2022/03/26 02:09:35;;;;;;;23.60;17.17;;;;;;;1.56;82.04;100459.09;4908265;29;20234;-80
2022/03/26 02:12:04;;;;;;;26.50;17.43;;;;;;;1.53;81.87;100455.91;4910134;29;20238;-79
2022/03/26 02:14:30;;;;;;;21.87;17.20;;;;;;;1.51;82.02;100455.22;4909708;29;20297;-81
2022/03/26 02:16:57;;;;;;;29.27;18.03;;;;;;;1.47;82.05;100456.47;4913225;29;20238;-80
2022/03/26 02:19:24;;;;;;;26.33;17.60;;;;;;;1.43;82.00;100455.09;4908308;29;20265;-80
2022/03/26 02:21:51;;;;;;;21.93;16.93;;;;;;;1.38;83.03;100457.31;4909948;29;20241;-80
2022/03/26 02:24:17;;;;;;;21.30;17.40;;;;;;;1.35;82.41;100458.44;4908457;29;20257;-80
2022/03/26 02:26:44;;;;;;;23.43;17.50;;;;;;;1.35;82.93;100460.25;4910262;29;20298;-80
2022/03/26 02:29:12;;;;;;;23.47;16.93;;;;;;;1.27;84.11;100461.78;4907360;29;20240;-80
2022/03/26 02:31:39;;;;;;;22.63;17.00;;;;;;;1.30;84.40;100463.31;4907231;29;20229;-80
2022/03/26 02:34:07;;;;;;;21.80;17.03;;;;;;;1.25;83.95;100476.94;4906934;29;20245;-79
2022/03/26 02:36:34;;;;;;;25.20;17.83;;;;;;;1.17;85.08;100471.50;4911775;29;20246;-80
2022/03/26 02:39:03;;;;;;;21.60;16.87;;;;;;;1.12;84.87;100476.34;4902788;29;20262;-80
2022/03/26 02:41:31;;;;;;;22.70;16.90;;;;;;;1.12;85.44;100480.81;4909384;29;20242;-80
2022/03/26 02:43:57;;;;;;;24.33;17.07;;;;;;;1.00;87.01;100474.00;4909600;29;20718;-80
2022/03/26 02:46:24;;;;;;;20.60;16.43;;;;;;;1.06;86.22;100473.44;4908114;29;20227;-79
2022/03/26 02:48:51;;;;;;;23.33;16.47;;;;;;;0.95;86.82;100469.13;4902823;29;20318;-78
2022/03/26 02:51:18;;;;;;;23.27;17.37;;;;;;;0.90;88.10;100473.97;4903988;29;20254;-81
2022/03/26 02:53:45;;;;;;;22.20;16.43;;;;;;;0.89;90.48;100480.22;4906195;29;20267;-80
2022/03/26 02:56:12;;;;;;;22.83;17.23;;;;;;;0.91;89.87;100474.81;4909454;29;20230;-80
2022/03/26 02:58:38;;;;;;;26.67;17.63;;;;;;;0.85;90.08;100466.47;4904496;29;20573;-80
2022/03/26 03:01:05;;;;;;;20.57;16.43;;;;;;;0.85;91.36;100473.56;4910521;29;20238;-80
2022/03/26 03:03:32;;;;;;;22.10;17.03;;;;;;;0.83;90.28;100470.25;4909407;29;20329;-79
2022/03/26 03:05:59;;;;;;;22.63;17.10;;;;;;;0.81;91.23;100469.53;4903435;29;20248;-80
2022/03/26 03:08:26;;;;;;;24.73;17.80;;;;;;;0.74;91.37;100466.63;4911310;29;20238;-79
2022/03/26 03:10:53;;;;;;;24.87;18.00;;;;;;;0.75;91.72;100464.78;4909433;29;20292;-80
2022/03/26 03:13:21;;;;;;;27.67;19.80;;;;;;;0.71;91.35;100469.50;4901856;29;20241;-80
2022/03/26 03:15:49;;;;;;;26.97;18.03;;;;;;;0.69;90.79;100460.09;4906915;29;20242;-80
2022/03/26 03:18:17;;;;;;;25.70;18.67;;;;;;;0.67;91.25;100468.13;4910441;29;20231;-80
2022/03/26 03:20:45;;;;;;;27.87;16.97;;;;;;;0.59;91.12;100462.69;4913063;29;20297;-80
2022/03/26 03:23:13;;;;;;;21.67;16.80;;;;;;;0.60;91.80;100463.53;4907035;29;20730;-80
2022/03/26 03:25:40;;;;;;;24.33;16.97;;;;;;;0.54;92.06;100461.44;4911887;29;21092;-80
2022/03/26 03:28:07;;;;;;;23.40;17.40;;;;;;;0.54;93.15;100469.34;4906462;29;20290;-79
2022/03/26 03:30:34;;;;;;;22.33;17.27;;;;;;;0.53;91.80;100463.22;4908697;29;20334;-79
2022/03/26 03:33:01;;;;;;;23.43;17.70;;;;;;;0.48;92.77;100456.69;4915846;29;20321;-79
2022/03/26 03:35:27;;;;;;;22.97;17.23;;;;;;;0.39;93.46;100463.59;4914095;29;20235;-79
2022/03/26 03:37:54;;;;;;;20.97;16.80;;;;;;;0.38;94.53;100456.66;4906574;29;20239;-79
2022/03/26 03:40:21;;;;;;;25.30;17.03;;;;;;;0.37;94.77;100455.03;4908730;29;20805;-79
2022/03/26 03:42:48;;;;;;;23.90;17.60;;;;;;;0.35;95.53;100452.50;4915917;29;20252;-79
2022/03/26 03:45:15;;;;;;;22.50;17.43;;;;;;;0.29;96.81;100450.41;4907242;29;20236;-79
2022/03/26 03:47:41;;;;;;;23.43;16.77;;;;;;;0.32;96.67;100458.06;4913275;29;20741;-79
2022/03/26 03:50:08;;;;;;;23.67;17.20;;;;;;;0.27;96.12;100460.25;4907686;29;20233;-80
2022/03/26 03:52:35;;;;;;;24.40;18.40;;;;;;;0.23;97.10;100455.38;4918881;29;20230;-80
2022/03/26 03:55:03;;;;;;;24.33;17.03;;;;;;;0.20;97.36;100453.84;4913715;29;20283;-80
2022/03/26 03:57:30;;;;;;;23.93;17.57;;;;;;;0.16;97.73;100457.72;4904822;29;20302;-81
2022/03/26 03:59:56;;;;;;;23.73;16.63;;;;;;;0.17;97.71;100456.75;4913719;29;20747;-79
2022/03/26 04:02:23;;;;;;;22.93;17.53;;;;;;;0.14;98.67;100462.25;4907116;29;20381;-79
2022/03/26 04:04:51;;;;;;;22.40;17.23;;;;;;;0.12;98.89;100464.22;4913820;29;20242;-80
2022/03/26 04:07:17;;;;;;;23.33;16.93;;;;;;;0.09;100.00;100466.28;4913445;29;20736;-80
2022/03/26 04:09:44;;;;;;;22.90;17.03;;;;;;;0.07;100.00;100465.56;4910837;29;20265;-79
2022/03/26 04:12:11;;;;;;;23.60;17.73;;;;;;;0.02;100.00;100462.50;4914168;29;20333;-79
2022/03/26 04:14:43;;;;;;;24.30;17.80;;;;;;;-0.01;100.00;100461.81;4912262;29;20239;-80
2022/03/26 04:17:12;;;;;;;24.53;18.60;;;;;;;0.03;100.00;100467.66;4908670;29;20230;-79
2022/03/26 04:19:40;;;;;;;22.40;17.07;;;;;;;-0.08;100.00;100465.09;4915762;29;20322;-81
2022/03/26 04:22:07;;;;;;;24.77;18.47;;;;;;;-0.15;100.00;100472.69;4909493;29;20281;-79
2022/03/26 04:24:35;;;;;;;24.17;17.67;;;;;;;-0.15;100.00;100467.44;4911146;29;20298;-79
2022/03/26 04:27:03;;;;;;;21.83;16.70;;;;;;;-0.14;100.00;100470.91;4902198;29;20230;-79
2022/03/26 04:29:30;;;;;;;24.70;16.83;;;;;;;-0.19;100.00;100478.34;4910767;29;20358;-78
2022/03/26 04:31:57;;;;;;;23.90;17.13;;;;;;;-0.25;100.00;100473.59;4905251;29;20313;-79
2022/03/26 04:34:24;;;;;;;22.67;16.70;;;;;;;-0.26;100.00;100479.81;4912425;29;20329;-79
2022/03/26 04:36:51;;;;;;;22.97;17.03;;;;;;;-0.25;100.00;100476.22;4913420;29;20722;-79
2022/03/26 04:39:18;;;;;;;24.33;17.57;;;;;;;-0.26;100.00;100474.56;4915103;29;20245;-79
2022/03/26 04:41:45;;;;;;;22.07;16.90;;;;;;;-0.30;100.00;100481.06;4913066;29;20277;-78
2022/03/26 04:44:11;;;;;;;26.83;18.00;;;;;;;-0.32;100.00;100496.97;4912433;29;20318;-79
2022/03/26 04:46:39;;;;;;;27.47;18.93;;;;;;;-0.33;100.00;100486.59;4912402;29;20326;-79
2022/03/26 04:49:06;;;;;;;27.73;18.80;;;;;;;-0.33;100.00;100491.84;4917357;29;20248;-80
2022/03/26 04:51:32;;;;;;;27.67;18.33;;;;;;;-0.28;100.00;100494.94;4915108;29;20298;-79
2022/03/26 04:54:00;;;;;;;27.20;18.07;;;;;;;-0.24;100.00;100491.91;4914241;29;20261;-78
2022/03/26 04:56:27;;;;;;;27.27;18.80;;;;;;;-0.23;100.00;100488.28;4914022;29;20321;-79
2022/03/26 04:58:55;;;;;;;24.13;17.40;;;;;;;-0.22;100.00;100497.88;4907539;29;20234;-79
2022/03/26 05:01:22;;;;;;;26.37;18.07;;;;;;;-0.19;100.00;100494.16;4909227;29;20242;-79
2022/03/26 05:03:49;;;;;;;25.37;17.63;;;;;;;-0.16;100.00;100496.53;4900325;29;20247;-79
2022/03/26 05:06:16;;;;;;;25.00;18.17;;;;;;;-0.08;100.00;100496.69;4905821;29;20250;-79
2022/03/26 05:08:43;;;;;;;24.83;16.87;;;;;;;-0.03;100.00;100494.50;4907349;29;20252;-78
2022/03/26 05:11:10;;;;;;;24.67;17.17;;;;;;;0.03;100.00;100490.53;4912927;29;20238;-78
2022/03/26 05:13:37;;;;;;;25.10;16.87;;;;;;;0.12;100.00;100493.19;4906198;29;20235;-78
2022/03/26 05:16:04;;;;;;;25.03;17.00;;;;;;;0.18;100.00;100492.69;4910858;29;20245;-79
2022/03/26 05:18:31;;;;;;;24.17;17.07;;;;;;;0.25;100.00;100491.19;4909376;29;20769;-79
2022/03/26 05:20:58;;;;;;;21.03;17.27;;;;;;;0.34;100.00;100492.16;4907336;29;20293;-78
2022/03/26 05:23:25;;;;;;;24.90;18.00;;;;;;;0.43;100.00;100504.56;4904501;29;20251;-78
2022/03/26 05:25:53;;;;;;;23.53;17.60;;;;;;;0.52;100.00;100490.56;4908976;29;20257;-79
2022/03/26 05:28:21;;;;;;;25.57;18.10;;;;;;;0.63;100.00;100493.09;4903949;29;20362;-79
2022/03/26 05:30:49;;;;;;;24.17;16.90;;;;;;;0.77;100.00;100495.34;4913370;29;20733;-78
2022/03/26 05:33:16;;;;;;;25.80;18.10;;;;;;;0.94;100.00;100499.13;4912411;29;20237;-78
2022/03/26 05:35:43;;;;;;;23.43;16.37;;;;;;;1.07;100.00;100512.06;4905831;29;20231;-78
2022/03/26 05:38:10;;;;;;;23.77;16.87;;;;;;;1.20;100.00;100516.13;4907369;29;20237;-78
2022/03/26 05:40:37;;;;;;;22.23;16.37;;;;;;;1.36;100.00;100519.97;4904887;29;20257;-78
2022/03/26 05:43:04;;;;;;;21.93;16.53;;;;;;;1.48;100.00;100517.09;4906388;29;20252;-79
2022/03/26 05:45:31;;;;;;;23.70;17.60;;;;;;;1.58;99.07;100522.38;4905280;29;20318;-78
2022/03/26 05:48:01;;;;;;;22.33;16.70;;;;;;;1.73;99.20;100528.84;4910725;29;20757;-79
2022/03/26 05:50:29;;;;;;;20.80;17.40;;;;;;;1.92;97.55;100536.75;4908648;29;20240;-78
2022/03/26 05:52:56;;;;;;;22.67;16.17;;;;;;;2.07;95.25;100535.34;4906065;29;20258;-79
2022/03/26 05:55:23;;;;;;;23.23;16.83;;;;;;;2.28;91.75;100540.44;4907181;29;20649;-78
2022/03/26 05:57:50;;;;;;;24.93;17.87;;;;;;;2.31;95.29;100556.00;4910076;29;20236;-78
2022/03/26 06:00:17;;;;;;;26.57;17.90;;;;;;;2.46;94.44;100554.56;4908640;29;20234;-78
2022/03/26 06:02:44;;;;;;;23.83;16.93;;;;;;;2.63;91.81;100556.44;4909213;29;20271;-78
2022/03/26 06:05:12;;;;;;;22.43;16.80;;;;;;;2.83;88.40;100551.88;4909906;29;20325;-79
2022/03/26 06:07:39;;;;;;;24.40;17.43;;;;;;;3.00;86.93;100551.09;4908665;29;20329;-78
2022/03/26 06:10:05;;;;;;;21.50;16.90;;;;;;;3.22;84.83;100554.31;4906261;29;20244;-78
2022/03/26 06:12:32;;;;;;;43.83;27.17;;;;;;;3.41;83.04;100557.63;4908364;29;20317;-78
2022/03/26 06:14:59;;;;;;;29.43;20.57;;;;;;;3.62;80.98;100567.09;4909313;29;20246;-78
2022/03/26 06:17:26;;;;;;;26.17;18.70;;;;;;;3.82;78.36;100566.78;4908071;29;20257;-78
2022/03/26 06:19:52;;;;;;;26.13;19.87;;;;;;;4.02;76.35;100567.41;4910977;29;20222;-78
2022/03/26 06:22:19;;;;;;;23.33;17.77;;;;;;;4.28;73.92;100580.69;4908894;29;20240;-79
2022/03/26 06:24:46;;;;;;;23.20;17.87;;;;;;;4.41;72.15;100571.34;4909391;29;20234;-79
2022/03/26 06:27:13;;;;;;;24.03;18.03;;;;;;;4.58;71.97;100577.53;4906402;29;20664;-79
2022/03/26 06:29:39;;;;;;;27.33;17.70;;;;;;;4.78;70.71;100576.31;4908036;29;20321;-78
2022/03/26 06:32:07;;;;;;;22.67;17.67;;;;;;;4.99;69.50;100575.09;4906685;29;20612;-79
2022/03/26 06:34:33;;;;;;;24.60;16.93;;;;;;;5.20;66.67;100578.13;4907606;29;20648;-78
2022/03/26 06:37:00;;;;;;;25.63;17.73;;;;;;;5.40;64.07;100576.84;4904383;29;20329;-79
2022/03/26 06:39:27;;;;;;;24.07;17.63;;;;;;;5.60;63.19;100570.22;4907195;29;20249;-78
2022/03/26 06:41:53;;;;;;;25.07;17.30;;;;;;;5.82;62.23;100568.75;4910683;29;20244;-78
2022/03/26 06:44:20;;;;;;;23.43;16.80;;;;;;;6.06;60.83;100573.28;4907906;29;20266;-78
2022/03/26 06:46:47;;;;;;;23.20;16.87;;;;;;;6.29;58.19;100578.72;4908351;29;20455;-79
2022/03/26 06:49:14;;;;;;;23.03;16.77;;;;;;;6.50;57.77;100574.53;4910455;29;20238;-79
2022/03/26 06:51:41;;;;;;;24.53;17.23;;;;;;;6.64;57.18;100576.47;4901196;29;20243;-80
2022/03/26 06:54:08;;;;;;;24.30;17.03;;;;;;;6.83;55.95;100580.56;4917643;29;20232;-79
2022/03/26 06:56:35;;;;;;;26.83;18.10;;;;;;;7.01;55.48;100578.50;4907303;29;20243;-80
2022/03/26 06:59:02;;;;;;;26.33;18.70;;;;;;;7.25;54.50;100582.03;4916861;29;20252;-80
2022/03/26 07:01:29;;;;;;;26.53;17.37;;;;;;;7.43;53.78;100575.44;4909986;29;20305;-79
2022/03/26 07:03:56;;;;;;;25.50;17.60;;;;;;;7.61;54.01;100583.13;4912185;29;20240;-79
2022/03/26 07:06:23;;;;;;;24.27;17.80;;;;;;;7.81;53.40;100579.00;4912118;29;20293;-79
2022/03/26 07:08:50;;;;;;;25.70;18.97;;;;;;;8.00;52.42;100582.19;4905991;29;20357;-80
2022/03/26 07:11:17;;;;;;;22.77;17.53;;;;;;;8.18;51.44;100578.19;4908856;29;20298;-80
2022/03/26 07:13:44;;;;;;;24.40;18.70;;;;;;;8.34;50.15;100575.41;4912769;29;20705;-79
2022/03/26 07:16:11;;;;;;;28.97;19.50;;;;;;;8.52;49.17;100577.72;4916710;29;20333;-78
2022/03/26 07:18:38;;;;;;;28.73;20.27;;;;;;;8.70;47.88;100582.69;4913572;29;20342;-79
2022/03/26 07:21:05;;;;;;;25.07;19.10;;;;;;;8.87;48.01;100572.63;4907947;29;20871;-79
2022/03/26 07:23:32;;;;;;;27.40;19.23;;;;;;;9.04;48.56;100577.59;4910063;29;20246;-79
2022/03/26 07:25:59;;;;;;;26.23;18.97;;;;;;;9.21;48.38;100576.38;4910636;29;20298;-80
2022/03/26 07:28:26;;;;;;;24.60;18.53;;;;;;;9.40;48.29;100580.28;4917970;29;20642;-80
2022/03/26 07:30:52;;;;;;;26.37;18.47;;;;;;;9.55;48.07;100583.75;4915176;29;20658;-80
2022/03/26 07:33:20;;;;;;;24.43;19.00;;;;;;;9.73;47.30;100585.97;4913090;29;20241;-80
2022/03/26 07:35:46;;;;;;;25.57;19.13;;;;;;;9.85;47.11;100584.44;4916152;29;20236;-80
2022/03/26 07:38:13;;;;;;;23.77;18.17;;;;;;;9.98;46.22;100583.75;4922539;29;20238;-79
2022/03/26 07:40:40;;;;;;;23.83;18.60;;;;;;;10.18;46.00;100576.72;4905198;29;20261;-80
2022/03/26 07:43:07;;;;;;;28.70;19.13;;;;;;;10.44;45.25;100581.47;4914758;29;20321;-79
2022/03/26 07:45:35;;;;;;;26.77;19.47;;;;;;;10.52;45.18;100578.63;4914994;29;20253;-80
2022/03/26 07:48:02;;;;;;;27.67;19.50;;;;;;;10.66;44.30;100583.06;4911259;29;20289;-77
2022/03/26 07:50:29;;;;;;;26.27;18.80;;;;;;;10.80;44.05;100581.28;4918488;29;20231;-78
2022/03/26 07:52:56;;;;;;;30.90;19.87;;;;;;;10.93;43.49;100581.34;4915559;29;20294;-78
2022/03/26 07:55:23;;;;;;;30.33;19.57;;;;;;;11.07;42.80;100587.59;4911202;29;20271;-78
2022/03/26 07:57:50;;;;;;;31.70;20.57;;;;;;;11.15;42.89;100577.50;4916255;29;20234;-78
2022/03/26 08:00:17;;;;;;;29.90;19.47;;;;;;;11.34;41.59;100578.63;4915639;29;20320;-78
2022/03/26 08:02:44;;;;;;;27.00;20.10;;;;;;;11.46;41.67;100577.03;4909843;29;20238;-78
2022/03/26 08:05:10;;;;;;;28.27;22.90;;;;;;;11.68;41.62;100580.34;4911956;29;20250;-78
2022/03/26 08:07:38;;;;;;;25.83;20.07;;;;;;;11.81;39.96;100585.78;4915914;29;20235;-79
2022/03/26 08:10:05;;;;;;;28.47;19.90;;;;;;;11.88;39.22;100581.25;4920751;29;20242;-78
2022/03/26 08:12:32;;;;;;;28.07;20.63;;;;;;;12.00;39.14;100576.09;4919128;29;20258;-78
2022/03/26 08:14:59;;;;;;;27.07;19.53;;;;;;;12.20;38.91;100585.81;4918888;29;20268;-78
2022/03/26 08:17:29;;;;;;;29.23;19.70;;;;;;;12.31;38.85;100582.53;4911127;29;20707;-78
2022/03/26 08:19:56;;;;;;;28.47;20.17;;;;;;;12.39;37.97;100583.31;4914473;29;20270;-78
2022/03/26 08:22:22;;;;;;;30.97;21.70;;;;;;;12.52;37.62;100586.81;4911588;29;20274;-78
2022/03/26 08:24:49;;;;;;;27.63;21.20;;;;;;;12.49;37.64;100581.88;4910552;29;20750;-78
2022/03/26 08:27:16;;;;;;;26.30;20.50;;;;;;;12.63;38.37;100582.69;4917472;29;20258;-78
2022/03/26 08:29:43;;;;;;;26.93;20.37;;;;;;;12.75;37.71;100583.69;4913616;29;20242;-78
2022/03/26 08:32:10;;;;;;;26.87;19.87;;;;;;;12.91;36.30;100583.22;4915032;29;20226;-78
2022/03/26 08:34:36;;;;;;;27.30;20.73;;;;;;;13.03;35.85;100581.53;4909323;29;20289;-78
2022/03/26 08:37:03;;;;;;;27.90;20.23;;;;;;;13.20;35.92;100590.00;4909105;29;20238;-78
2022/03/26 08:39:30;;;;;;;26.90;20.23;;;;;;;13.34;35.77;100574.63;4911466;29;20234;-78
2022/03/26 08:41:57;;;;;;;27.57;21.27;;;;;;;13.36;36.73;100591.34;4915997;29;20330;-78
2022/03/26 08:44:24;;;;;;;29.63;20.30;;;;;;;13.54;35.21;100586.91;4910619;29;20282;-78
2022/03/26 08:46:50;;;;;;;24.73;18.63;;;;;;;13.58;34.45;100590.00;4918325;29;20362;-77
2022/03/26 08:49:17;;;;;;;27.63;20.20;;;;;;;13.65;33.95;100593.47;4918828;29;20241;-79
2022/03/26 08:51:44;;;;;;;25.37;19.20;;;;;;;13.64;34.13;100591.81;4912488;29;20324;-78
2022/03/26 08:54:11;;;;;;;26.83;19.33;;;;;;;13.70;34.34;100590.97;4912282;29;20250;-78
2022/03/26 08:56:38;;;;;;;31.50;20.80;;;;;;;13.73;34.58;100587.00;4916924;29;20282;-78
2022/03/26 08:59:04;;;;;;;27.47;20.90;;;;;;;13.83;34.87;100585.50;4911859;29;20658;-78
2022/03/26 09:01:31;;;;;;;28.03;20.97;;;;;;;13.93;34.60;100585.00;4914613;29;20632;-78
2022/03/26 09:03:58;;;;;;;26.97;21.13;;;;;;;13.96;34.27;100576.47;4907363;29;20257;-78
2022/03/26 09:06:25;;;;;;;27.50;20.53;;;;;;;14.13;34.31;100576.78;4910656;29;20289;-78
2022/03/26 09:08:52;;;;;;;29.93;22.07;;;;;;;14.23;34.25;100574.44;4918232;29;20298;-79
2022/03/26 09:11:19;;;;;;;28.27;20.97;;;;;;;14.25;34.28;100581.22;4900659;29;20722;-78
2022/03/26 09:13:46;;;;;;;26.23;21.23;;;;;;;14.40;34.24;100575.53;4907687;29;20222;-78
2022/03/26 09:16:12;;;;;;;27.13;20.27;;;;;;;14.39;34.09;100577.41;4907837;29;20240;-78
2022/03/26 09:18:39;;;;;;;27.33;20.90;;;;;;;14.56;34.65;100571.47;4907515;29;20234;-78
2022/03/26 09:21:06;;;;;;;27.00;20.87;;;;;;;14.55;33.10;100573.31;4909776;29;20242;-78
2022/03/26 09:23:33;;;;;;;27.93;20.13;;;;;;;14.64;32.59;100569.28;4906655;29;20272;-78
2022/03/26 09:26:00;;;;;;;26.17;19.50;;;;;;;14.85;32.27;100573.41;4910661;29;20262;-78
2022/03/26 09:28:27;;;;;;;25.53;19.93;;;;;;;14.80;32.23;100568.69;4912808;29;20700;-78
2022/03/26 09:30:53;;;;;;;26.03;19.90;;;;;;;15.11;31.85;100566.91;4910958;29;20232;-77
2022/03/26 09:33:21;;;;;;;26.33;20.10;;;;;;;15.13;31.58;100568.31;4912965;29;20234;-79
2022/03/26 09:35:48;;;;;;;26.10;19.37;;;;;;;15.26;31.48;100564.59;4906608;29;20329;-77
2022/03/26 09:38:15;;;;;;;32.23;21.00;;;;;;;15.39;30.87;100564.47;4905149;29;20239;-78
2022/03/26 09:40:45;;;;;;;28.87;21.90;;;;;;;15.26;30.96;100554.63;4907526;29;20318;-78
2022/03/26 09:43:13;;;;;;;29.03;20.87;;;;;;;15.44;30.99;100546.50;4910566;29;20234;-77
2022/03/26 09:45:40;;;;;;;26.97;20.20;;;;;;;15.34;31.79;100550.81;4908390;29;20235;-78
2022/03/26 09:48:07;;;;;;;29.60;21.73;;;;;;;15.48;31.69;100554.97;4913093;29;20235;-78
2022/03/26 09:50:34;;;;;;;28.77;21.23;;;;;;;15.56;31.21;100548.44;4910806;29;20254;-78
2022/03/26 09:53:01;;;;;;;29.93;21.60;;;;;;;15.75;31.29;100548.16;4909619;29;20259;-78
2022/03/26 09:55:28;;;;;;;27.70;22.80;;;;;;;15.72;30.97;100543.19;4914287;29;20776;-78
2022/03/26 09:57:55;;;;;;;29.37;24.17;;;;;;;15.83;30.59;100547.00;4910810;29;20704;-78
2022/03/26 10:00:22;;;;;;;30.60;22.63;;;;;;;15.88;31.17;100547.13;4911904;29;20250;-78
2022/03/26 10:02:48;;;;;;;26.73;21.30;;;;;;;15.95;30.65;100541.63;4909355;29;20342;-78
2022/03/26 10:05:19;;;;;;;31.73;21.67;;;;;;;15.90;30.52;100541.50;4912439;29;20233;-78
2022/03/26 10:07:47;;;;;;;27.47;21.53;;;;;;;15.94;30.70;100540.81;4907474;29;20240;-78
2022/03/26 10:10:24;;;;;;;27.07;19.83;;;;;;;16.05;30.71;100537.28;4910511;29;20282;-77
2022/03/26 10:12:52;;;;;;;30.63;20.93;;;;;;;16.14;30.91;100535.06;4909942;29;20249;-78
2022/03/26 10:15:19;;;;;;;27.57;21.17;;;;;;;16.10;31.12;100534.69;4914506;29;20647;-78
2022/03/26 10:17:46;;;;;;;25.90;19.87;;;;;;;16.33;30.26;100533.88;4908260;29;20827;-78
2022/03/26 10:20:14;;;;;;;28.83;21.20;;;;;;;16.42;30.51;100521.69;4917018;29;20303;-78
2022/03/26 10:22:48;;;;;;;25.57;18.87;;;;;;;16.21;30.04;100514.97;4907445;29;20331;-78
2022/03/26 10:25:15;;;;;;;25.40;18.17;;;;;;;16.42;30.77;100512.75;4914486;29;20242;-78
2022/03/26 10:27:44;;;;;;;23.17;17.63;;;;;;;16.56;29.61;100512.22;4911303;29;20323;-78
2022/03/26 10:30:13;;;;;;;26.33;18.27;;;;;;;16.37;29.58;100512.63;4910474;29;20245;-79
2022/03/26 10:32:49;;;;;;;28.37;18.57;;;;;;;16.49;29.37;100505.31;4903275;29;20747;-78
2022/03/26 10:35:21;;;;;;;23.23;17.57;;;;;;;16.52;29.49;100504.81;4910541;29;20318;-78
2022/03/26 10:37:55;;;;;;;24.57;17.33;;;;;;;16.57;29.34;100500.34;4909953;29;20233;-78
2022/03/26 10:40:31;;;;;;;23.53;18.00;;;;;;;16.75;28.94;100495.91;4907329;29;20246;-78
2022/03/26 10:43:25;;;;;;;26.87;19.17;;;;;;;16.86;28.68;100493.16;4912360;29;20245;-78
2022/03/26 10:45:55;;;;;;;21.87;18.57;;;;;;;16.97;29.24;100486.91;4910293;29;20237;-78
2022/03/26 10:48:30;;;;;;;27.00;19.47;;;;;;;16.93;28.52;100493.03;4909933;29;20231;-78
2022/03/26 10:51:09;;;;;;;26.27;19.57;;;;;;;17.06;27.95;100488.16;4906010;29;20241;-78
2022/03/26 10:53:38;;;;;;;29.40;19.20;;;;;;;17.23;28.04;100488.19;4911718;29;20231;-78
2022/03/26 10:56:10;;;;;;;26.80;18.83;;;;;;;17.33;27.54;100482.13;4906204;29;20778;-78
2022/03/26 10:58:38;;;;;;;24.70;19.10;;;;;;;17.45;27.61;100475.59;4909068;29;20702;-78
2022/03/26 11:01:06;;;;;;;27.20;20.30;;;;;;;17.03;27.78;100477.78;4912381;29;20294;-79
2022/03/26 11:03:36;;;;;;;24.67;19.43;;;;;;;17.24;28.40;100473.59;4912779;29;20248;-78
2022/03/26 11:06:08;;;;;;;29.20;19.73;;;;;;;17.57;27.98;100470.13;4907776;29;20238;-78
2022/03/26 11:08:36;;;;;;;27.97;19.50;;;;;;;17.58;27.12;100460.94;4907175;29;20242;-78
2022/03/26 11:11:08;;;;;;;22.83;19.43;;;;;;;17.75;27.34;100460.94;4901927;29;20227;-78
2022/03/26 11:13:38;;;;;;;23.77;19.27;;;;;;;17.76;27.09;100452.59;4908508;29;20697;-78